createdAt,value
2023-02-07T00:00:07.043Z,2.60
2023-02-07T00:00:19.074Z,2.60
2023-02-07T00:00:31.045Z,2.60
2023-02-07T00:00:45.432Z,2.60
2023-02-07T00:00:57.198Z,2.60
2023-02-07T00:01:11.507Z,2.60
2023-02-07T00:01:23.829Z,2.60
2023-02-07T00:01:35.638Z,2.60
2023-02-07T00:01:47.430Z,2.60
2023-02-07T00:01:59.368Z,2.60
2023-02-07T00:02:11.612Z,2.60
2023-02-07T00:02:23.484Z,2.60
2023-02-07T00:02:35.429Z,2.60
2023-02-07T00:02:48.161Z,2.60
2023-02-07T00:03:00.172Z,2.50
2023-02-07T00:03:11.963Z,2.60
2023-02-07T00:03:23.813Z,2.50
2023-02-07T00:03:35.583Z,2.50
2023-02-07T00:03:47.345Z,2.50
2023-02-07T00:03:59.165Z,2.60
2023-02-07T00:04:10.924Z,2.50
2023-02-07T00:04:23.124Z,2.60
2023-02-07T00:04:34.887Z,2.50
2023-02-07T00:04:46.701Z,2.60
2023-02-07T00:04:58.698Z,2.50
2023-02-07T00:05:11.003Z,2.50
2023-02-07T00:05:22.867Z,2.50
2023-02-07T00:05:36.954Z,2.50
2023-02-07T00:05:48.831Z,2.50
2023-02-07T00:06:11.535Z,2.50
2023-02-07T00:06:33.901Z,2.50
2023-02-07T00:06:45.812Z,2.50
2023-02-07T00:06:57.566Z,2.40
2023-02-07T00:07:09.531Z,2.50
2023-02-07T00:07:21.290Z,2.50
2023-02-07T00:07:33.077Z,2.50
2023-02-07T00:07:44.998Z,2.50
2023-02-07T00:07:57.028Z,2.50
2023-02-07T00:08:08.989Z,2.50
2023-02-07T00:08:21.056Z,2.50
2023-02-07T00:08:32.800Z,2.50
2023-02-07T00:08:44.617Z,2.40
2023-02-07T00:08:56.516Z,2.50
2023-02-07T00:09:08.588Z,2.40
2023-02-07T00:09:20.268Z,2.50
2023-02-07T00:09:32.094Z,2.50
2023-02-07T00:09:44.250Z,2.40
2023-02-07T00:09:57.824Z,2.50
2023-02-07T00:10:09.875Z,2.40
2023-02-07T00:10:21.710Z,2.40
2023-02-07T00:10:34.323Z,2.40
2023-02-07T00:10:46.072Z,2.40
2023-02-07T00:10:57.751Z,2.40
2023-02-07T00:11:11.634Z,2.40
2023-02-07T00:11:23.672Z,2.40
2023-02-07T00:11:35.846Z,2.40
2023-02-07T00:11:48.096Z,2.40
2023-02-07T00:11:59.867Z,2.40
2023-02-07T00:12:11.586Z,2.40
2023-02-07T00:12:23.372Z,2.50
2023-02-07T00:12:35.637Z,2.40
2023-02-07T00:12:47.367Z,2.50
2023-02-07T00:12:59.132Z,2.40
2023-02-07T00:13:11.622Z,2.50
2023-02-07T00:13:23.898Z,2.40
2023-02-07T00:13:35.876Z,2.50
2023-02-07T00:13:50.625Z,2.50
2023-02-07T00:14:02.448Z,2.40
2023-02-07T00:14:14.345Z,2.40
2023-02-07T00:14:26.068Z,2.40
2023-02-07T00:14:37.999Z,2.40
2023-02-07T00:14:49.690Z,2.40
2023-02-07T00:15:01.464Z,2.40
2023-02-07T00:15:13.269Z,2.40
2023-02-07T00:15:24.973Z,2.40
2023-02-07T00:15:37.104Z,2.40
2023-02-07T00:15:51.310Z,2.40
2023-02-07T00:16:06.343Z,2.40
2023-02-07T00:16:18.257Z,2.40
2023-02-07T00:16:30.268Z,2.40
2023-02-07T00:16:42.216Z,2.30
2023-02-07T00:16:54.007Z,2.40
2023-02-07T00:17:05.727Z,2.30
2023-02-07T00:17:17.651Z,2.30
2023-02-07T00:17:29.544Z,2.30
2023-02-07T00:17:41.330Z,2.30
2023-02-07T00:17:53.057Z,2.30
2023-02-07T00:18:04.928Z,2.30
2023-02-07T00:18:16.688Z,2.30
2023-02-07T00:18:28.465Z,2.30
2023-02-07T00:18:40.446Z,2.30
2023-02-07T00:18:52.567Z,2.30
2023-02-07T00:19:04.405Z,2.30
2023-02-07T00:19:16.731Z,2.30
2023-02-07T00:19:28.585Z,2.30
2023-02-07T00:19:40.494Z,2.30
2023-02-07T00:19:52.462Z,2.30
2023-02-07T00:20:05.960Z,2.30
2023-02-07T00:20:17.944Z,2.30
2023-02-07T00:20:29.766Z,2.30
2023-02-07T00:20:41.600Z,2.30
2023-02-07T00:21:04.774Z,2.30
2023-02-07T00:21:17.833Z,2.30
2023-02-07T00:21:29.718Z,2.30
2023-02-07T00:21:41.420Z,2.40
2023-02-07T00:21:53.296Z,2.30
2023-02-07T00:22:05.234Z,2.40
2023-02-07T00:22:16.978Z,2.40
2023-02-07T00:22:28.744Z,2.40
2023-02-07T00:22:40.563Z,2.40
2023-02-07T00:22:52.838Z,2.30
2023-02-07T00:23:04.685Z,2.40
2023-02-07T00:23:16.542Z,2.40
2023-02-07T00:23:28.847Z,2.40
2023-02-07T00:23:40.703Z,2.40
2023-02-07T00:23:53.026Z,2.40
2023-02-07T00:24:05.116Z,2.30
2023-02-07T00:24:17.279Z,2.40
2023-02-07T00:24:29.266Z,2.40
2023-02-07T00:24:41.105Z,2.40
2023-02-07T00:24:52.835Z,2.40
2023-02-07T00:25:05.099Z,2.40
2023-02-07T00:25:16.989Z,2.40
2023-02-07T00:25:28.821Z,2.40
2023-02-07T00:25:40.493Z,2.40
2023-02-07T00:25:52.240Z,2.40
2023-02-07T00:26:04.451Z,2.40
2023-02-07T00:26:16.468Z,2.40
2023-02-07T00:26:28.337Z,2.40
2023-02-07T00:26:40.166Z,2.40
2023-02-07T00:26:52.386Z,2.40
2023-02-07T00:27:04.067Z,2.40
2023-02-07T00:27:16.339Z,2.40
2023-02-07T00:27:28.084Z,2.40
2023-02-07T00:27:40.052Z,2.40
2023-02-07T00:27:52.042Z,2.30
2023-02-07T00:28:03.961Z,2.40
2023-02-07T00:28:15.790Z,2.30
2023-02-07T00:28:27.720Z,2.30
2023-02-07T00:28:39.667Z,2.40
2023-02-07T00:28:52.711Z,2.30
2023-02-07T00:29:05.024Z,2.40
2023-02-07T00:29:16.754Z,2.40
2023-02-07T00:29:28.492Z,2.40
2023-02-07T00:29:40.230Z,2.40
2023-02-07T00:29:52.396Z,2.40
2023-02-07T00:30:05.271Z,2.40
2023-02-07T00:30:17.429Z,2.40
2023-02-07T00:30:29.528Z,2.40
2023-02-07T00:30:41.359Z,2.40
2023-02-07T00:31:03.444Z,2.40
2023-02-07T00:31:41.613Z,2.40
2023-02-07T00:31:53.387Z,2.40
2023-02-07T00:32:05.512Z,2.40
2023-02-07T00:32:17.352Z,2.40
2023-02-07T00:32:32.949Z,2.40
2023-02-07T00:32:45.115Z,2.30
2023-02-07T00:32:57.011Z,2.30
2023-02-07T00:33:08.768Z,2.30
2023-02-07T00:33:20.472Z,2.30
2023-02-07T00:33:32.336Z,2.30
2023-02-07T00:33:44.536Z,2.30
2023-02-07T00:33:58.108Z,2.30
2023-02-07T00:34:10.670Z,2.30
2023-02-07T00:34:22.415Z,2.30
2023-02-07T00:34:36.223Z,2.30
2023-02-07T00:34:48.245Z,2.30
2023-02-07T00:35:00.103Z,2.30
2023-02-07T00:35:11.817Z,2.30
2023-02-07T00:35:23.731Z,2.30
2023-02-07T00:35:35.755Z,2.30
2023-02-07T00:35:47.679Z,2.30
2023-02-07T00:36:00.457Z,2.30
2023-02-07T00:36:14.520Z,2.30
2023-02-07T00:36:27.223Z,2.30
2023-02-07T00:36:39.280Z,2.30
2023-02-07T00:36:51.597Z,2.30
2023-02-07T00:37:04.876Z,2.30
2023-02-07T00:37:16.768Z,2.30
2023-02-07T00:37:28.584Z,2.30
2023-02-07T00:37:40.379Z,2.30
2023-02-07T00:37:52.131Z,2.30
2023-02-07T00:38:04.783Z,2.30
2023-02-07T00:38:17.194Z,2.30
2023-02-07T00:38:28.991Z,2.30
2023-02-07T00:38:40.948Z,2.30
2023-02-07T00:38:56.887Z,2.30
2023-02-07T00:39:11.863Z,2.30
2023-02-07T00:39:23.705Z,2.30
2023-02-07T00:39:35.570Z,2.30
2023-02-07T00:39:47.313Z,2.30
2023-02-07T00:39:58.993Z,2.30
2023-02-07T00:40:10.986Z,2.30
2023-02-07T00:40:23.712Z,2.30
2023-02-07T00:40:35.587Z,2.40
2023-02-07T00:40:47.439Z,2.30
2023-02-07T00:41:01.463Z,2.30
2023-02-07T00:41:18.410Z,2.30
2023-02-07T00:41:30.331Z,2.30
2023-02-07T00:41:43.344Z,2.30
2023-02-07T00:41:55.089Z,2.30
2023-02-07T00:42:06.866Z,2.30
2023-02-07T00:42:18.725Z,2.30
2023-02-07T00:42:30.683Z,2.30
2023-02-07T00:42:42.421Z,2.30
2023-02-07T00:42:54.259Z,2.30
2023-02-07T00:43:06.322Z,2.30
2023-02-07T00:43:29.103Z,2.30
2023-02-07T00:43:42.465Z,2.30
2023-02-07T00:43:54.749Z,2.30
2023-02-07T00:44:06.508Z,2.30
2023-02-07T00:44:18.206Z,2.30
2023-02-07T00:44:30.162Z,2.30
2023-02-07T00:44:42.072Z,2.30
2023-02-07T00:44:53.846Z,2.30
2023-02-07T00:45:05.855Z,2.30
2023-02-07T00:45:17.665Z,2.30
2023-02-07T00:45:29.514Z,2.30
2023-02-07T00:45:41.269Z,2.30
2023-02-07T00:45:53.157Z,2.30
2023-02-07T00:46:05.640Z,2.30
2023-02-07T00:46:17.550Z,2.30
2023-02-07T00:46:29.796Z,2.30
2023-02-07T00:46:41.572Z,2.30
2023-02-07T00:46:53.757Z,2.30
2023-02-07T00:47:05.880Z,2.30
2023-02-07T00:47:17.741Z,2.30
2023-02-07T00:47:29.473Z,2.30
2023-02-07T00:47:41.240Z,2.30
2023-02-07T00:47:52.932Z,2.30
2023-02-07T00:48:04.977Z,2.30
2023-02-07T00:48:16.840Z,2.30
2023-02-07T00:48:28.976Z,2.30
2023-02-07T00:48:40.763Z,2.30
2023-02-07T00:48:52.590Z,2.30
2023-02-07T00:49:04.886Z,2.30
2023-02-07T00:49:16.728Z,2.30
2023-02-07T00:49:28.643Z,2.30
2023-02-07T00:49:40.362Z,2.30
2023-02-07T00:49:52.249Z,2.30
2023-02-07T00:50:04.400Z,2.30
2023-02-07T00:50:16.422Z,2.30
2023-02-07T00:50:28.100Z,2.30
2023-02-07T00:50:39.994Z,2.40
2023-02-07T00:50:51.981Z,2.30
2023-02-07T00:51:03.781Z,2.30
2023-02-07T00:51:15.564Z,2.30
2023-02-07T00:51:27.509Z,2.30
2023-02-07T00:51:39.335Z,2.30
2023-02-07T00:51:51.049Z,2.30
2023-02-07T00:52:03.496Z,2.30
2023-02-07T00:52:15.368Z,2.30
2023-02-07T00:52:27.259Z,2.30
2023-02-07T00:52:38.944Z,2.30
2023-02-07T00:52:51.039Z,2.30
2023-02-07T00:53:02.742Z,2.30
2023-02-07T00:53:14.500Z,2.30
2023-02-07T00:53:26.757Z,2.20
2023-02-07T00:53:39.629Z,2.30
2023-02-07T00:53:56.082Z,2.30
2023-02-07T00:54:07.956Z,2.30
2023-02-07T00:54:20.142Z,2.30
2023-02-07T00:54:31.963Z,2.30
2023-02-07T00:54:43.712Z,2.30
2023-02-07T00:54:55.947Z,2.30
2023-02-07T00:55:08.124Z,2.30
2023-02-07T00:55:19.983Z,2.30
2023-02-07T00:55:32.081Z,2.30
2023-02-07T00:55:43.800Z,2.30
2023-02-07T00:55:55.944Z,2.30
2023-02-07T00:56:08.527Z,2.30
2023-02-07T00:56:21.257Z,2.20
2023-02-07T00:56:33.157Z,2.30
2023-02-07T00:56:44.922Z,2.20
2023-02-07T00:56:56.772Z,2.30
2023-02-07T00:57:08.749Z,2.30
2023-02-07T00:57:20.544Z,2.30
2023-02-07T00:57:32.915Z,2.20
2023-02-07T00:57:44.768Z,2.20
2023-02-07T00:57:56.620Z,2.20
2023-02-07T00:58:08.446Z,2.20
2023-02-07T00:58:20.352Z,2.30
2023-02-07T00:58:32.163Z,2.20
2023-02-07T00:58:43.939Z,2.20
2023-02-07T00:58:55.686Z,2.20
2023-02-07T00:59:07.544Z,2.20
2023-02-07T00:59:19.395Z,2.20
2023-02-07T00:59:31.103Z,2.20
2023-02-07T00:59:42.933Z,2.20
2023-02-07T00:59:54.640Z,2.20
2023-02-07T01:00:07.184Z,2.20
2023-02-07T01:00:19.112Z,2.20
2023-02-07T01:00:30.945Z,2.20
2023-02-07T01:00:42.892Z,2.20
2023-02-07T01:00:54.674Z,2.20
2023-02-07T01:01:06.642Z,2.20
2023-02-07T01:01:18.624Z,2.20
2023-02-07T01:01:30.586Z,2.20
2023-02-07T01:01:43.960Z,2.20
2023-02-07T01:01:55.652Z,2.20
2023-02-07T01:02:07.338Z,2.20
2023-02-07T01:02:19.001Z,2.20
2023-02-07T01:02:30.799Z,2.20
2023-02-07T01:02:42.572Z,2.20
2023-02-07T01:02:54.482Z,2.20
2023-02-07T01:03:06.577Z,2.20
2023-02-07T01:03:18.394Z,2.20
2023-02-07T01:03:30.304Z,2.20
2023-02-07T01:03:42.161Z,2.20
2023-02-07T01:03:54.393Z,2.10
2023-02-07T01:04:06.177Z,2.20
2023-02-07T01:04:18.055Z,2.10
2023-02-07T01:04:30.334Z,2.10
2023-02-07T01:04:42.094Z,2.20
2023-02-07T01:04:53.889Z,2.20
2023-02-07T01:05:06.979Z,2.20
2023-02-07T01:05:18.809Z,2.10
2023-02-07T01:05:30.580Z,2.20
2023-02-07T01:05:42.460Z,2.20
2023-02-07T01:05:54.311Z,2.20
2023-02-07T01:06:06.585Z,2.10
2023-02-07T01:06:18.286Z,2.20
2023-02-07T01:06:33.889Z,2.20
2023-02-07T01:06:45.642Z,2.20
2023-02-07T01:06:57.370Z,2.20
2023-02-07T01:07:09.308Z,2.20
2023-02-07T01:07:22.939Z,2.20
2023-02-07T01:07:34.709Z,2.20
2023-02-07T01:07:47.215Z,2.20
2023-02-07T01:07:59.145Z,2.20
2023-02-07T01:08:11.376Z,2.20
2023-02-07T01:08:23.322Z,2.20
2023-02-07T01:08:35.255Z,2.20
2023-02-07T01:08:47.234Z,2.20
2023-02-07T01:08:59.742Z,2.20
2023-02-07T01:09:12.184Z,2.20
2023-02-07T01:09:23.926Z,2.20
2023-02-07T01:09:35.809Z,2.20
2023-02-07T01:09:47.528Z,2.20
2023-02-07T01:09:59.250Z,2.20
2023-02-07T01:10:11.555Z,2.30
2023-02-07T01:10:24.798Z,2.30
2023-02-07T01:10:38.904Z,2.30
2023-02-07T01:10:50.626Z,2.30
2023-02-07T01:11:03.535Z,2.30
2023-02-07T01:11:16.598Z,2.30
2023-02-07T01:11:28.953Z,2.30
2023-02-07T01:11:40.836Z,2.30
2023-02-07T01:11:52.537Z,2.30
2023-02-07T01:12:04.312Z,2.30
2023-02-07T01:12:16.142Z,2.30
2023-02-07T01:12:28.184Z,2.30
2023-02-07T01:12:39.939Z,2.30
2023-02-07T01:12:52.181Z,2.30
2023-02-07T01:13:03.917Z,2.30
2023-02-07T01:13:20.502Z,2.30
2023-02-07T01:13:32.261Z,2.30
2023-02-07T01:13:44.595Z,2.30
2023-02-07T01:13:57.815Z,2.30
2023-02-07T01:14:09.652Z,2.30
2023-02-07T01:14:21.524Z,2.30
2023-02-07T01:14:33.195Z,2.40
2023-02-07T01:14:45.872Z,2.40
2023-02-07T01:14:59.111Z,2.40
2023-02-07T01:15:10.804Z,2.40
2023-02-07T01:15:24.874Z,2.30
2023-02-07T01:15:40.474Z,2.40
2023-02-07T01:15:53.032Z,2.30
2023-02-07T01:16:05.339Z,2.40
2023-02-07T01:16:25.467Z,2.40
2023-02-07T01:16:37.384Z,2.40
2023-02-07T01:16:50.075Z,2.40
2023-02-07T01:17:01.746Z,2.40
2023-02-07T01:17:13.677Z,2.40
2023-02-07T01:17:25.393Z,2.40
2023-02-07T01:17:38.133Z,2.40
2023-02-07T01:17:49.949Z,2.40
2023-02-07T01:18:02.334Z,2.40
2023-02-07T01:18:16.659Z,2.40
2023-02-07T01:18:28.460Z,2.40
2023-02-07T01:18:40.136Z,2.40
2023-02-07T01:18:52.140Z,2.40
2023-02-07T01:19:06.440Z,2.40
2023-02-07T01:19:18.404Z,2.40
2023-02-07T01:19:30.132Z,2.50
2023-02-07T01:19:43.723Z,2.40
2023-02-07T01:20:01.285Z,2.50
2023-02-07T01:20:13.215Z,2.40
2023-02-07T01:20:30.996Z,2.50
2023-02-07T01:20:43.777Z,2.50
2023-02-07T01:20:55.558Z,2.40
2023-02-07T01:21:15.956Z,2.50
2023-02-07T01:21:29.418Z,2.40
2023-02-07T01:21:41.595Z,2.40
2023-02-07T01:21:54.173Z,2.50
2023-02-07T01:22:06.079Z,2.40
2023-02-07T01:22:19.646Z,2.40
2023-02-07T01:22:32.818Z,2.40
2023-02-07T01:22:44.720Z,2.40
2023-02-07T01:22:56.470Z,2.40
2023-02-07T01:23:08.511Z,2.40
2023-02-07T01:23:20.948Z,2.40
2023-02-07T01:23:38.641Z,2.40
2023-02-07T01:23:50.782Z,2.40
2023-02-07T01:24:02.630Z,2.40
2023-02-07T01:24:14.434Z,2.30
2023-02-07T01:24:26.479Z,2.40
2023-02-07T01:24:38.564Z,2.40
2023-02-07T01:24:50.319Z,2.40
2023-02-07T01:25:02.065Z,2.40
2023-02-07T01:25:13.809Z,2.40
2023-02-07T01:25:25.711Z,2.40
2023-02-07T01:25:39.343Z,2.30
2023-02-07T01:25:51.187Z,2.30
2023-02-07T01:26:05.670Z,2.30
2023-02-07T01:26:17.408Z,2.30
2023-02-07T01:26:29.165Z,2.30
2023-02-07T01:26:41.037Z,2.30
2023-02-07T01:26:52.797Z,2.30
2023-02-07T01:27:04.531Z,2.30
2023-02-07T01:27:16.360Z,2.30
2023-02-07T01:27:33.452Z,2.30
2023-02-07T01:27:45.241Z,2.30
2023-02-07T01:27:57.293Z,2.30
2023-02-07T01:28:09.122Z,2.30
2023-02-07T01:28:20.913Z,2.30
2023-02-07T01:28:32.708Z,2.30
2023-02-07T01:28:44.372Z,2.30
2023-02-07T01:28:57.329Z,2.30
2023-02-07T01:29:10.263Z,2.30
2023-02-07T01:29:22.327Z,2.30
2023-02-07T01:29:34.094Z,2.30
2023-02-07T01:29:45.814Z,2.30
2023-02-07T01:29:59.881Z,2.30
2023-02-07T01:30:12.247Z,2.40
2023-02-07T01:30:24.050Z,2.30
2023-02-07T01:30:36.133Z,2.40
2023-02-07T01:30:48.141Z,2.30
2023-02-07T01:30:59.978Z,2.40
2023-02-07T01:31:12.597Z,2.40
2023-02-07T01:31:24.764Z,2.40
2023-02-07T01:31:38.018Z,2.30
2023-02-07T01:31:51.856Z,2.30
2023-02-07T01:32:03.852Z,2.40
2023-02-07T01:32:16.949Z,2.40
2023-02-07T01:32:28.828Z,2.30
2023-02-07T01:32:40.794Z,2.30
2023-02-07T01:32:52.621Z,2.40
2023-02-07T01:33:04.390Z,2.30
2023-02-07T01:33:16.215Z,2.40
2023-02-07T01:33:28.131Z,2.30
2023-02-07T01:33:39.884Z,2.40
2023-02-07T01:33:55.446Z,2.40
2023-02-07T01:34:07.211Z,2.40
2023-02-07T01:34:19.166Z,2.40
2023-02-07T01:34:30.895Z,2.40
2023-02-07T01:34:45.746Z,2.40
2023-02-07T01:34:57.490Z,2.40
2023-02-07T01:35:09.530Z,2.40
2023-02-07T01:35:21.282Z,2.40
2023-02-07T01:35:33.215Z,2.40
2023-02-07T01:35:47.156Z,2.40
2023-02-07T01:35:59.080Z,2.40
2023-02-07T01:36:12.833Z,2.40
2023-02-07T01:36:26.996Z,2.30
2023-02-07T01:36:40.977Z,2.30
2023-02-07T01:36:52.816Z,2.30
2023-02-07T01:37:04.508Z,2.30
2023-02-07T01:37:16.269Z,2.30
2023-02-07T01:37:28.161Z,2.30
2023-02-07T01:37:40.052Z,2.30
2023-02-07T01:37:51.800Z,2.30
2023-02-07T01:38:03.656Z,2.20
2023-02-07T01:38:15.992Z,2.20
2023-02-07T01:38:30.712Z,2.20
2023-02-07T01:38:42.888Z,2.20
2023-02-07T01:38:54.927Z,2.20
2023-02-07T01:39:06.669Z,2.20
2023-02-07T01:39:18.490Z,2.20
2023-02-07T01:39:30.258Z,2.20
2023-02-07T01:39:41.925Z,2.20
2023-02-07T01:39:55.000Z,2.20
2023-02-07T01:40:07.539Z,2.20
2023-02-07T01:40:19.533Z,2.20
2023-02-07T01:40:31.542Z,2.20
2023-02-07T01:40:43.357Z,2.20
2023-02-07T01:40:55.210Z,2.20
2023-02-07T01:41:07.464Z,2.20
2023-02-07T01:41:19.321Z,2.20
2023-02-07T01:41:31.040Z,2.20
2023-02-07T01:41:42.770Z,2.20
2023-02-07T01:41:54.865Z,2.20
2023-02-07T01:42:06.739Z,2.20
2023-02-07T01:42:18.729Z,2.20
2023-02-07T01:42:30.603Z,2.10
2023-02-07T01:42:42.435Z,2.10
2023-02-07T01:42:54.496Z,2.10
2023-02-07T01:43:06.500Z,2.10
2023-02-07T01:43:19.450Z,2.10
2023-02-07T01:43:31.338Z,2.10
2023-02-07T01:43:59.567Z,2.10
2023-02-07T01:44:23.200Z,2.10
2023-02-07T01:44:37.626Z,2.10
2023-02-07T01:44:52.165Z,2.10
2023-02-07T01:45:13.057Z,2.10
2023-02-07T01:45:36.867Z,2.10
2023-02-07T01:45:48.789Z,2.10
2023-02-07T01:46:03.623Z,2.10
2023-02-07T01:46:15.385Z,2.10
2023-02-07T01:46:27.753Z,2.20
2023-02-07T01:46:39.506Z,2.20
2023-02-07T01:46:51.964Z,2.20
2023-02-07T01:47:03.662Z,2.10
2023-02-07T01:47:17.878Z,2.20
2023-02-07T01:47:29.606Z,2.20
2023-02-07T01:47:41.422Z,2.20
2023-02-07T01:47:55.612Z,2.20
2023-02-07T01:48:09.297Z,2.20
2023-02-07T01:48:24.022Z,2.20
2023-02-07T01:48:36.036Z,2.20
2023-02-07T01:48:47.885Z,2.20
2023-02-07T01:49:04.416Z,2.20
2023-02-07T01:49:17.086Z,2.20
2023-02-07T01:49:31.458Z,2.20
2023-02-07T01:49:43.526Z,2.20
2023-02-07T01:49:56.236Z,2.20
2023-02-07T01:50:08.101Z,2.20
2023-02-07T01:50:20.030Z,2.20
2023-02-07T01:50:31.806Z,2.20
2023-02-07T01:50:44.213Z,2.20
2023-02-07T01:50:57.315Z,2.20
2023-02-07T01:51:09.191Z,2.20
2023-02-07T01:51:21.123Z,2.20
2023-02-07T01:51:33.001Z,2.20
2023-02-07T01:51:47.615Z,2.20
2023-02-07T01:52:06.072Z,2.20
2023-02-07T01:52:25.993Z,2.20
2023-02-07T01:52:39.797Z,2.20
2023-02-07T01:52:51.691Z,2.20
2023-02-07T01:53:03.520Z,2.20
2023-02-07T01:53:16.390Z,2.20
2023-02-07T01:53:28.172Z,2.20
2023-02-07T01:53:39.892Z,2.20
2023-02-07T01:53:52.257Z,2.20
2023-02-07T01:54:06.694Z,2.20
2023-02-07T01:54:18.571Z,2.10
2023-02-07T01:54:36.119Z,2.20
2023-02-07T01:54:49.400Z,2.20
2023-02-07T01:55:04.396Z,2.20
2023-02-07T01:55:20.352Z,2.10
2023-02-07T01:55:34.759Z,2.10
2023-02-07T01:55:46.454Z,2.10
2023-02-07T01:56:01.134Z,2.20
2023-02-07T01:56:20.152Z,2.10
2023-02-07T01:56:43.469Z,2.20
2023-02-07T01:56:56.852Z,2.20
2023-02-07T01:57:09.433Z,2.10
2023-02-07T01:57:21.838Z,2.20
2023-02-07T01:57:33.558Z,2.20
2023-02-07T01:57:45.285Z,2.20
2023-02-07T01:57:57.178Z,2.20
2023-02-07T01:58:08.986Z,2.20
2023-02-07T01:58:20.739Z,2.20
2023-02-07T01:58:33.641Z,2.20
2023-02-07T01:58:45.323Z,2.20
2023-02-07T01:58:57.047Z,2.20
2023-02-07T01:59:08.822Z,2.20
2023-02-07T01:59:21.045Z,2.20
2023-02-07T01:59:33.888Z,2.20
2023-02-07T01:59:46.173Z,2.20
2023-02-07T02:00:00.138Z,2.20
2023-02-07T02:00:14.886Z,2.20
2023-02-07T02:00:26.950Z,2.20
2023-02-07T02:00:38.911Z,2.20
2023-02-07T02:00:51.255Z,2.20
2023-02-07T02:01:06.862Z,2.20
2023-02-07T02:01:22.890Z,2.20
2023-02-07T02:01:34.830Z,2.20
2023-02-07T02:01:46.733Z,2.20
2023-02-07T02:01:59.399Z,2.20
2023-02-07T02:02:15.433Z,2.20
2023-02-07T02:02:32.149Z,2.20
2023-02-07T02:02:44.283Z,2.20
2023-02-07T02:02:57.275Z,2.20
2023-02-07T02:03:09.103Z,2.20
2023-02-07T02:03:20.869Z,2.20
2023-02-07T02:03:34.039Z,2.20
2023-02-07T02:03:49.533Z,2.20
2023-02-07T02:04:01.343Z,2.20
2023-02-07T02:04:13.303Z,2.20
2023-02-07T02:04:25.689Z,2.20
2023-02-07T02:04:38.799Z,2.20
2023-02-07T02:04:51.817Z,2.20
2023-02-07T02:05:03.871Z,2.20
2023-02-07T02:05:15.702Z,2.20
2023-02-07T02:05:28.174Z,2.20
2023-02-07T02:05:40.393Z,2.20
2023-02-07T02:05:54.176Z,2.20
2023-02-07T02:06:06.086Z,2.20
2023-02-07T02:06:18.060Z,2.20
2023-02-07T02:06:30.826Z,2.20
2023-02-07T02:06:42.790Z,2.20
2023-02-07T02:06:55.120Z,2.10
2023-02-07T02:07:08.196Z,2.20
2023-02-07T02:07:20.136Z,2.20
2023-02-07T02:07:33.283Z,2.20
2023-02-07T02:07:45.473Z,2.20
2023-02-07T02:07:57.999Z,2.10
2023-02-07T02:08:10.102Z,2.20
2023-02-07T02:08:22.853Z,2.20
2023-02-07T02:08:34.588Z,2.10
2023-02-07T02:08:46.514Z,2.20
2023-02-07T02:08:59.283Z,2.20
2023-02-07T02:09:12.429Z,2.20
2023-02-07T02:09:24.489Z,2.20
2023-02-07T02:09:37.268Z,2.20
2023-02-07T02:09:49.197Z,2.20
2023-02-07T02:10:01.101Z,2.20
2023-02-07T02:10:18.705Z,2.20
2023-02-07T02:11:07.002Z,2.20
2023-02-07T02:11:28.363Z,2.20
2023-02-07T02:11:51.936Z,2.10
2023-02-07T02:12:40.324Z,2.10
2023-02-07T02:13:00.574Z,2.10
2023-02-07T02:13:47.475Z,2.10
2023-02-07T02:14:02.104Z,2.10
2023-02-07T02:14:38.247Z,2.10
2023-02-07T02:15:26.978Z,2.10
2023-02-07T02:15:55.464Z,2.10
2023-02-07T02:16:45.123Z,2.10
2023-02-07T02:17:20.017Z,2.10
2023-02-07T02:17:41.811Z,2.20
2023-02-07T02:18:08.368Z,2.10
2023-02-07T02:18:38.647Z,2.20
2023-02-07T02:18:56.334Z,2.10
2023-02-07T02:19:25.786Z,2.10
2023-02-07T02:19:49.020Z,2.20
2023-02-07T02:20:19.345Z,2.20
2023-02-07T02:20:47.247Z,2.20
2023-02-07T02:21:07.959Z,2.20
2023-02-07T02:21:26.594Z,2.10
2023-02-07T02:22:02.988Z,2.20
2023-02-07T02:22:32.570Z,2.20
2023-02-07T02:22:59.122Z,2.10
2023-02-07T02:23:19.392Z,2.20
2023-02-07T02:23:52.518Z,2.20
2023-02-07T02:24:45.845Z,2.20
2023-02-07T02:25:34.261Z,2.20
2023-02-07T02:25:58.200Z,2.20
2023-02-07T02:26:31.570Z,2.20
2023-02-07T02:27:00.802Z,2.20
2023-02-07T02:27:26.313Z,2.20
2023-02-07T02:27:47.114Z,2.20
2023-02-07T02:28:16.988Z,2.20
2023-02-07T02:28:31.374Z,2.20
2023-02-07T02:28:50.754Z,2.20
2023-02-07T02:29:14.035Z,2.30
2023-02-07T02:29:44.572Z,2.20
2023-02-07T02:30:48.944Z,2.30
2023-02-07T02:31:28.618Z,2.30
2023-02-07T02:31:45.895Z,2.20
2023-02-07T02:32:34.821Z,2.20
2023-02-07T02:33:01.197Z,2.20
2023-02-07T02:33:29.626Z,2.30
2023-02-07T02:33:46.486Z,2.20
2023-02-07T02:34:06.375Z,2.20
2023-02-07T02:34:24.010Z,2.20
2023-02-07T02:34:51.399Z,2.20
2023-02-07T02:35:13.579Z,2.30
2023-02-07T02:35:36.347Z,2.20
2023-02-07T02:36:16.185Z,2.20
2023-02-07T02:37:10.614Z,2.30
2023-02-07T02:37:27.019Z,2.30
2023-02-07T02:37:50.241Z,2.30
2023-02-07T02:38:15.746Z,2.30
2023-02-07T02:38:42.915Z,2.30
2023-02-07T02:39:03.589Z,2.20
2023-02-07T02:39:23.451Z,2.20
2023-02-07T02:39:51.412Z,2.20
2023-02-07T02:40:05.629Z,2.20
2023-02-07T02:49:10.950Z,2.00
2023-02-07T02:49:22.711Z,2.10
2023-02-07T02:49:34.559Z,2.10
2023-02-07T02:49:46.528Z,2.10
2023-02-07T02:49:58.551Z,2.00
2023-02-07T02:50:12.049Z,2.10
2023-02-07T02:50:28.902Z,2.10
2023-02-07T02:50:42.970Z,2.10
2023-02-07T02:50:54.655Z,2.10
2023-02-07T02:51:06.453Z,2.10
2023-02-07T02:51:18.218Z,2.10
2023-02-07T02:51:31.082Z,2.10
2023-02-07T02:51:42.846Z,2.10
2023-02-07T02:51:54.609Z,2.10
2023-02-07T02:52:06.725Z,2.10
2023-02-07T02:52:18.593Z,2.10
2023-02-07T02:52:48.589Z,2.10
2023-02-07T02:53:01.542Z,2.10
2023-02-07T02:53:13.887Z,2.10
2023-02-07T02:53:25.752Z,2.10
2023-02-07T02:53:37.628Z,2.10
2023-02-07T02:53:53.387Z,2.10
2023-02-07T02:54:28.921Z,2.10
2023-02-07T02:54:40.850Z,2.10
2023-02-07T02:54:52.580Z,2.10
2023-02-07T02:55:04.756Z,2.10
2023-02-07T02:55:16.458Z,2.10
2023-02-07T02:55:40.906Z,2.10
2023-02-07T02:55:58.698Z,2.10
2023-02-07T02:56:15.022Z,2.10
2023-02-07T02:56:45.558Z,2.10
2023-02-07T02:57:21.206Z,2.10
2023-02-07T02:57:56.445Z,2.10
2023-02-07T02:58:13.724Z,2.10
2023-02-07T02:58:34.267Z,2.10
2023-02-07T02:58:58.801Z,2.10
2023-02-07T02:59:26.508Z,2.10
2023-02-07T02:59:42.814Z,2.10
2023-02-07T02:59:59.533Z,2.10
2023-02-07T03:00:28.835Z,2.10
2023-02-07T03:00:49.441Z,2.00
2023-02-07T03:01:15.875Z,2.00
2023-02-07T03:01:46.415Z,1.90
2023-02-07T03:02:09.909Z,1.90
2023-02-07T03:02:43.518Z,1.90
2023-02-07T03:02:59.898Z,1.90
2023-02-07T03:03:33.277Z,1.90
2023-02-07T03:03:50.753Z,1.90
2023-02-07T03:04:43.765Z,1.90
2023-02-07T03:05:28.511Z,1.90
2023-02-07T03:06:17.839Z,1.90
2023-02-07T03:06:53.079Z,2.00
2023-02-07T03:07:20.103Z,1.90
2023-02-07T03:07:43.502Z,1.90
2023-02-07T03:08:21.139Z,2.00
2023-02-07T03:08:57.149Z,1.90
2023-02-07T03:09:38.134Z,2.00
2023-02-07T03:10:28.529Z,2.00
2023-02-07T03:11:31.371Z,2.00
2023-02-07T03:11:51.071Z,2.00
2023-02-07T03:12:22.102Z,2.00
2023-02-07T03:12:55.069Z,2.00
2023-02-07T03:14:20.203Z,2.00
2023-02-07T03:14:42.436Z,2.00
2023-02-07T03:15:17.004Z,2.00
2023-02-07T03:15:50.420Z,2.00
2023-02-07T03:16:23.239Z,2.00
2023-02-07T03:16:37.255Z,2.10
2023-02-07T03:16:54.085Z,2.00
2023-02-07T03:17:25.918Z,2.00
2023-02-07T03:17:43.499Z,2.10
2023-02-07T03:17:58.425Z,2.00
2023-02-07T03:18:19.352Z,2.10
2023-02-07T03:18:38.957Z,2.00
2023-02-07T03:18:58.949Z,2.10
2023-02-07T03:19:15.771Z,2.10
2023-02-07T03:19:33.563Z,2.10
2023-02-07T03:19:48.956Z,2.10
2023-02-07T03:20:11.978Z,2.10
2023-02-07T03:20:27.525Z,2.10
2023-02-07T03:20:43.338Z,2.10
2023-02-07T03:21:00.509Z,2.10
2023-02-07T03:21:39.145Z,2.10
2023-02-07T03:22:01.262Z,2.10
2023-02-07T03:22:14.718Z,2.10
2023-02-07T03:22:26.502Z,2.10
2023-02-07T03:22:38.255Z,2.10
2023-02-07T03:22:50.543Z,2.10
2023-02-07T03:23:02.638Z,2.10
2023-02-07T03:23:14.526Z,2.10
2023-02-07T03:23:26.283Z,2.10
2023-02-07T03:23:37.980Z,2.10
2023-02-07T03:23:49.911Z,2.10
2023-02-07T03:24:06.586Z,2.10
2023-02-07T03:24:31.273Z,2.10
2023-02-07T03:24:45.071Z,2.20
2023-02-07T03:24:57.976Z,2.20
2023-02-07T03:25:09.769Z,2.10
2023-02-07T03:25:21.744Z,2.20
2023-02-07T03:25:33.636Z,2.20
2023-02-07T03:25:45.720Z,2.10
2023-02-07T03:25:57.483Z,2.10
2023-02-07T03:26:09.382Z,2.20
2023-02-07T03:26:21.135Z,2.20
2023-02-07T03:26:32.905Z,2.20
2023-02-07T03:26:44.894Z,2.20
2023-02-07T03:26:58.247Z,2.20
2023-02-07T03:27:11.416Z,2.20
2023-02-07T03:27:23.375Z,2.20
2023-02-07T03:27:35.262Z,2.20
2023-02-07T03:27:47.268Z,2.20
2023-02-07T03:27:59.155Z,2.20
2023-02-07T03:28:10.941Z,2.20
2023-02-07T03:28:22.836Z,2.20
2023-02-07T03:28:34.588Z,2.20
2023-02-07T03:28:46.385Z,2.20
2023-02-07T03:28:58.284Z,2.30
2023-02-07T03:29:10.095Z,2.30
2023-02-07T03:29:22.003Z,2.20